Time;durP1;ratioP1;P1;durP2;ratioP2;P2;SDS_P1;SDS_P2;PMS_P1;PMS_P2;Temp;Humidity;BMP_temperature;BMP_pressure;BME280_temperature;BME280_humidity;BME280_pressure;Samples;Min_cycle;Max_cycle;Signal;HPM_P1;HPM_P2
2022/12/30 00:00:56;;;;;;;14.10;7.70;;;;;;;5.27;73.38;99355.89;208568;1287;140267;-64
2022/12/30 00:06:14;;;;;;;16.40;8.30;;;;;;;5.22;73.44;99353.42;207742;1294;226464;-63
2022/12/30 00:11:19;;;;;;;12.30;8.40;;;;;;;5.17;73.62;99356.48;208909;1301;245401;-66
2022/12/30 00:38:08;;;;;;;18.60;9.90;;;;;;;4.98;74.03;99364.11;208700;1288;139567;-63
2022/12/30 00:43:11;;;;;;;18.00;10.10;;;;;;;5.01;74.11;99363.13;208443;1282;140421;-67
2022/12/30 00:59:00;;;;;;;18.60;10.90;;;;;;;4.97;74.33;99369.35;207802;1289;138989;-68
2022/12/30 01:04:02;;;;;;;16.60;9.60;;;;;;;4.96;74.53;99377.45;208111;1292;140902;-67
2022/12/30 01:09:06;;;;;;;16.20;10.70;;;;;;;4.98;74.52;99379.31;209396;1285;140680;-68
2022/12/30 01:14:08;;;;;;;16.00;10.00;;;;;;;4.99;74.91;99383.22;209667;1294;141233;-68
2022/12/30 01:19:11;;;;;;;17.40;9.30;;;;;;;4.96;74.57;99377.36;209702;1288;140903;-66
2022/12/30 01:24:16;;;;;;;17.40;10.80;;;;;;;4.93;74.76;99369.73;207579;1294;140315;-65
2022/12/30 01:29:24;;;;;;;13.80;9.50;;;;;;;4.94;74.65;99380.53;207530;1278;141128;-64
2022/12/30 01:34:28;;;;;;;14.20;9.30;;;;;;;4.95;75.13;99371.67;209240;1292;139921;-65
2022/12/30 01:39:32;;;;;;;13.80;8.90;;;;;;;4.96;75.09;99372.81;210551;1295;140923;-67
2022/12/30 01:45:03;;;;;;;16.90;9.30;;;;;;;4.99;74.92;99384.64;210407;1288;140139;-67
2022/12/30 01:50:10;;;;;;;15.70;9.60;;;;;;;5.02;75.06;99386.42;210380;1294;139631;-67
2022/12/30 01:55:46;;;;;;;10.90;7.30;;;;;;;5.10;75.08;99381.85;209314;1288;140969;-64
2022/12/30 02:00:48;;;;;;;13.70;9.20;;;;;;;5.20;75.11;99381.04;208588;1293;140236;-66
2022/12/30 02:05:52;;;;;;;18.30;9.70;;;;;;;5.26;75.33;99385.65;208874;1294;139303;-65
2022/12/30 02:10:56;;;;;;;10.30;8.00;;;;;;;5.30;75.35;99394.14;209106;1285;139341;-65
2022/12/30 02:16:03;;;;;;;14.50;9.00;;;;;;;5.32;75.35;99393.52;209676;1288;140653;-64
2022/12/30 02:21:40;;;;;;;17.50;10.50;;;;;;;5.32;75.20;99387.34;208614;1288;141054;-63
2022/12/30 02:26:59;;;;;;;12.50;8.80;;;;;;;5.31;75.23;99393.97;208770;1281;140803;-64
2022/12/30 02:32:38;;;;;;;17.20;8.60;;;;;;;5.29;75.32;99397.15;208853;1285;139505;-63
2022/12/30 02:37:47;;;;;;;13.50;9.30;;;;;;;5.22;74.93;99402.54;207884;1287;246746;-64
2022/12/30 02:48:31;;;;;;;12.30;9.10;;;;;;;5.16;75.56;99407.65;208578;1294;234933;-67
2022/12/30 02:53:38;;;;;;;14.00;10.50;;;;;;;5.15;75.37;99407.16;208201;1294;141522;-65
2022/12/30 02:58:49;;;;;;;11.60;8.50;;;;;;;5.10;75.40;99414.00;208190;1285;141070;-65
2022/12/30 03:04:12;;;;;;;19.10;11.80;;;;;;;5.03;75.38;99422.75;208369;1294;140557;-64
2022/12/30 03:09:31;;;;;;;19.20;11.80;;;;;;;5.02;75.53;99424.45;209243;1293;140491;-64
2022/12/30 03:14:50;;;;;;;16.70;11.50;;;;;;;5.07;75.62;99429.41;209588;1295;740198;-68
2022/12/30 03:19:59;;;;;;;20.70;10.90;;;;;;;5.08;75.52;99427.91;208440;1285;140002;-66
2022/12/30 03:30:30;;;;;;;20.90;12.00;;;;;;;5.05;75.40;99430.95;210503;1286;221002;-65
2022/12/30 03:35:39;;;;;;;18.40;11.30;;;;;;;5.09;75.68;99427.34;210409;1293;141159;-66
2022/12/30 03:40:43;;;;;;;15.50;10.40;;;;;;;5.13;75.50;99431.39;210664;1285;139695;-65
2022/12/30 03:45:47;;;;;;;22.00;10.80;;;;;;;5.09;75.35;99436.36;210426;1294;140335;-66
2022/12/30 03:50:50;;;;;;;17.50;11.20;;;;;;;5.15;75.59;99445.66;209255;1285;141010;-65
2022/12/30 03:55:54;;;;;;;16.80;10.20;;;;;;;5.24;75.81;99444.98;210415;1294;141191;-66
2022/12/30 04:00:58;;;;;;;16.40;10.70;;;;;;;5.28;75.78;99447.92;207550;1294;140328;-67
2022/12/30 04:06:01;;;;;;;14.80;8.70;;;;;;;5.27;75.75;99453.55;209358;1294;139831;-67
2022/12/30 04:11:04;;;;;;;19.90;11.80;;;;;;;5.25;75.92;99457.89;208608;1287;140827;-66
2022/12/30 04:16:07;;;;;;;12.40;8.20;;;;;;;5.26;75.88;99464.77;208348;1287;139736;-64
2022/12/30 04:21:10;;;;;;;14.00;10.20;;;;;;;5.29;75.99;99461.88;208819;1285;233129;-64
2022/12/30 04:26:14;;;;;;;13.30;9.20;;;;;;;5.30;75.89;99463.50;207936;1286;141155;-64
2022/12/30 04:31:17;;;;;;;14.20;9.10;;;;;;;5.30;76.06;99466.70;207715;1287;139038;-64
2022/12/30 04:36:21;;;;;;;15.30;9.60;;;;;;;5.27;76.08;99467.94;208634;1278;139848;-65
2022/12/30 04:41:24;;;;;;;24.00;13.00;;;;;;;5.28;76.24;99467.52;208759;1287;139946;-63
2022/12/30 04:46:27;;;;;;;17.00;9.30;;;;;;;5.27;76.11;99471.80;208861;1284;140458;-69
2022/12/30 04:51:32;;;;;;;12.90;9.10;;;;;;;5.33;76.23;99474.96;208180;1288;140911;-63
2022/12/30 04:56:35;;;;;;;12.00;8.40;;;;;;;5.39;76.46;99479.75;208995;1294;139897;-64
2022/12/30 05:01:38;;;;;;;10.50;7.90;;;;;;;5.44;76.67;99480.47;208876;1288;140713;-63
2022/12/30 05:06:45;;;;;;;11.50;8.10;;;;;;;5.45;76.49;99489.50;208480;1295;140139;-65
2022/12/30 05:11:49;;;;;;;13.50;9.10;;;;;;;5.44;76.26;99496.74;208074;1286;139479;-67
2022/12/30 05:16:53;;;;;;;11.50;9.70;;;;;;;5.47;76.41;99508.00;208522;1284;141310;-66
2022/12/30 05:21:57;;;;;;;10.00;8.80;;;;;;;5.52;76.67;99513.49;209863;1286;140601;-66
2022/12/30 05:27:00;;;;;;;15.40;9.30;;;;;;;5.52;76.60;99520.45;207965;1287;139791;-66
2022/12/30 05:32:03;;;;;;;14.90;8.50;;;;;;;5.51;76.66;99528.88;210200;1293;139606;-63
2022/12/30 05:37:07;;;;;;;12.20;7.80;;;;;;;5.50;76.76;99536.62;210705;1293;139838;-64
2022/12/30 05:42:09;;;;;;;15.10;10.20;;;;;;;5.55;76.78;99543.06;209106;1297;139299;-65
2022/12/30 05:47:12;;;;;;;10.50;7.90;;;;;;;5.59;76.59;99549.45;210674;1291;140081;-67
2022/12/30 05:52:14;;;;;;;11.20;7.40;;;;;;;5.62;76.75;99551.92;210378;1293;140326;-63
2022/12/30 05:57:18;;;;;;;7.00;5.20;;;;;;;5.64;76.99;99553.42;209456;1294;140708;-66
2022/12/30 06:02:21;;;;;;;13.40;7.50;;;;;;;5.65;76.78;99555.54;209605;1283;139175;-68
2022/12/30 06:07:26;;;;;;;15.60;8.80;;;;;;;5.74;76.64;99558.21;209088;1282;141661;-68
2022/12/30 06:12:30;;;;;;;14.00;7.50;;;;;;;5.78;76.91;99566.99;208837;1287;141046;-67
2022/12/30 06:17:33;;;;;;;12.00;7.70;;;;;;;5.79;77.00;99573.70;207621;1294;140359;-66
2022/12/30 06:22:36;;;;;;;13.60;9.20;;;;;;;5.79;76.76;99581.93;208408;1285;139394;-66
2022/12/30 06:27:39;;;;;;;9.40;6.90;;;;;;;5.79;77.19;99594.10;208151;1301;139522;-66
2022/12/30 06:32:43;;;;;;;14.00;7.60;;;;;;;5.81;76.77;99603.70;207483;1293;233429;-65
2022/12/30 06:37:47;;;;;;;9.60;7.60;;;;;;;5.84;77.40;99608.67;209072;1288;139624;-65
2022/12/30 06:42:50;;;;;;;20.70;11.90;;;;;;;5.88;77.30;99613.84;209540;1294;139511;-64
2022/12/30 06:47:54;;;;;;;35.60;22.50;;;;;;;5.89;76.75;99626.39;208406;1293;141124;-64
2022/12/30 06:52:56;;;;;;;15.10;12.10;;;;;;;5.95;76.92;99636.48;208459;1295;140312;-63
2022/12/30 06:57:58;;;;;;;12.60;10.00;;;;;;;5.98;77.42;99643.11;208864;1294;140473;-64
2022/12/30 07:03:00;;;;;;;11.30;8.00;;;;;;;6.00;77.51;99654.88;209263;1281;140891;-63
2022/12/30 07:08:04;;;;;;;9.10;7.00;;;;;;;6.03;77.34;99667.98;207861;1288;142040;-62
2022/12/30 07:13:07;;;;;;;12.30;7.60;;;;;;;6.08;77.10;99678.48;208996;1293;140103;-65
2022/12/30 07:18:09;;;;;;;11.20;7.50;;;;;;;6.07;77.05;99681.05;209873;1289;140470;-64
2022/12/30 07:23:11;;;;;;;12.10;6.60;;;;;;;6.04;77.22;99680.40;208410;1293;205136;-64
2022/12/30 07:28:14;;;;;;;13.20;8.00;;;;;;;6.02;76.77;99688.45;210008;1294;139436;-67
2022/12/30 07:33:16;;;;;;;13.70;8.50;;;;;;;6.01;77.09;99693.83;210666;1295;140705;-67
2022/12/30 07:38:19;;;;;;;10.80;8.10;;;;;;;6.05;76.77;99702.09;210638;1287;139856;-66
2022/12/30 07:43:21;;;;;;;12.00;7.80;;;;;;;6.08;76.78;99708.04;210306;1288;139403;-68
2022/12/30 07:48:24;;;;;;;11.90;8.10;;;;;;;6.11;76.95;99714.90;210580;1294;140485;-66
2022/12/30 07:53:27;;;;;;;13.30;7.60;;;;;;;6.14;76.65;99722.13;209138;1295;139256;-64
2022/12/30 07:58:29;;;;;;;14.20;6.80;;;;;;;6.14;76.84;99731.17;209774;1285;139712;-67
2022/12/30 08:03:32;;;;;;;11.30;6.70;;;;;;;6.17;76.59;99738.41;210182;1291;139740;-66
2022/12/30 08:08:35;;;;;;;12.70;6.40;;;;;;;6.24;76.62;99744.44;209959;1284;140561;-64
2022/12/30 08:13:40;;;;;;;11.60;7.60;;;;;;;6.28;76.89;99752.91;209901;1294;140469;-63
2022/12/30 08:18:43;;;;;;;22.20;9.20;;;;;;;6.34;77.08;99754.73;210257;1294;140305;-65
2022/12/30 08:23:46;;;;;;;18.20;9.10;;;;;;;6.37;76.61;99757.58;209966;1296;140489;-63
2022/12/30 08:28:51;;;;;;;12.20;6.30;;;;;;;6.44;76.79;99767.98;209139;1298;160825;-65
2022/12/30 08:33:55;;;;;;;7.30;5.80;;;;;;;6.52;76.88;99784.22;209128;1293;140846;-64
2022/12/30 08:39:01;;;;;;;6.90;5.40;;;;;;;6.50;77.04;99791.35;207695;1294;229386;-63
2022/12/30 08:44:06;;;;;;;10.20;5.80;;;;;;;6.46;76.88;99797.70;208826;1293;139144;-63
2022/12/30 08:49:11;;;;;;;6.70;4.70;;;;;;;6.42;76.59;99811.54;209053;1295;139919;-63
2022/12/30 08:54:16;;;;;;;8.10;4.90;;;;;;;6.43;77.11;99815.73;208033;1295;139977;-63
2022/12/30 08:59:19;;;;;;;9.90;5.70;;;;;;;6.54;76.99;99825.93;209747;1288;140573;-66
2022/12/30 09:04:23;;;;;;;10.80;5.50;;;;;;;6.65;77.02;99838.56;208244;1291;138860;-65
2022/12/30 09:09:26;;;;;;;10.50;5.10;;;;;;;6.74;77.02;99844.77;207550;1285;141051;-67
2022/12/30 09:14:30;;;;;;;5.20;3.90;;;;;;;6.88;76.60;99849.30;210419;1287;140909;-64
2022/12/30 09:19:33;;;;;;;6.60;4.40;;;;;;;7.02;76.42;99855.39;207697;1301;139157;-65
2022/12/30 09:24:37;;;;;;;10.60;3.60;;;;;;;7.13;76.54;99852.90;207804;1300;140018;-66
2022/12/30 09:29:40;;;;;;;5.50;4.00;;;;;;;7.21;76.08;99850.23;210163;1291;139381;-64
2022/12/30 09:34:43;;;;;;;12.80;4.10;;;;;;;7.32;75.71;99847.24;210557;1297;139913;-65
2022/12/30 09:39:46;;;;;;;6.30;3.90;;;;;;;7.44;75.64;99856.93;210460;1295;139612;-66
2022/12/30 09:45:05;;;;;;;6.20;3.40;;;;;;;7.56;75.65;99867.58;209175;1292;141197;-67
2022/12/30 09:50:21;;;;;;;4.90;3.00;;;;;;;7.72;75.22;99866.83;208739;1292;140219;-65
2022/12/30 09:55:29;;;;;;;6.60;3.10;;;;;;;7.89;74.98;99864.86;207389;1291;139953;-65
2022/12/30 10:00:36;;;;;;;5.80;3.00;;;;;;;7.98;74.85;99868.66;208614;1284;140692;-66
2022/12/30 10:06:28;;;;;;;5.30;3.10;;;;;;;8.06;74.67;99858.11;207862;1294;139126;-66
2022/12/30 10:11:53;;;;;;;8.20;3.30;;;;;;;8.23;74.44;99864.09;205792;1299;236417;-65
2022/12/30 10:17:18;;;;;;;9.80;3.80;;;;;;;8.38;74.25;99864.88;208794;1290;139376;-65
2022/12/30 10:22:51;;;;;;;5.80;3.00;;;;;;;8.50;73.70;99863.98;208214;1293;139436;-65
2022/12/30 10:27:56;;;;;;;2.30;2.10;;;;;;;8.63;73.64;99867.60;207512;1294;138936;-67
2022/12/30 10:33:18;;;;;;;4.20;2.20;;;;;;;8.76;73.07;99878.16;208123;1291;139380;-66
2022/12/30 10:38:28;;;;;;;7.10;3.60;;;;;;;8.89;72.71;99875.31;207512;1284;140968;-64
2022/12/30 10:43:53;;;;;;;5.30;2.40;;;;;;;8.99;72.56;99878.08;208524;1299;139340;-65
2022/12/30 10:49:20;;;;;;;3.50;2.40;;;;;;;9.08;72.09;99872.55;208109;1293;138936;-64
2022/12/30 10:54:24;;;;;;;4.80;2.80;;;;;;;9.15;71.79;99877.89;207582;1299;139023;-65
2022/12/30 10:59:28;;;;;;;7.50;2.80;;;;;;;9.24;71.34;99880.76;207642;1291;140733;-63
2022/12/30 11:04:40;;;;;;;6.90;2.90;;;;;;;9.36;71.52;99880.58;207773;1284;138992;-64
2022/12/30 11:09:45;;;;;;;9.00;3.60;;;;;;;9.41;71.14;99872.49;209740;1300;139767;-66
2022/12/30 11:15:09;;;;;;;3.40;2.40;;;;;;;9.43;70.71;99880.79;208577;1295;236763;-65
2022/12/30 11:20:14;;;;;;;4.20;2.50;;;;;;;9.49;70.57;99889.29;208513;1300;140437;-65
2022/12/30 11:25:34;;;;;;;12.90;3.20;;;;;;;9.59;70.28;99888.19;210135;1295;151903;-65
2022/12/30 11:30:51;;;;;;;6.30;2.90;;;;;;;9.64;70.00;99884.27;210602;1300;141378;-67
2022/12/30 11:36:20;;;;;;;10.10;3.10;;;;;;;9.64;69.66;99892.59;210567;1299;141546;-66
2022/12/30 11:41:32;;;;;;;4.90;2.00;;;;;;;9.59;69.67;99897.07;209633;1300;139343;-67
2022/12/30 11:46:43;;;;;;;7.10;2.60;;;;;;;9.57;69.44;99896.85;208210;1282;138800;-65
2022/12/30 11:51:54;;;;;;;8.30;3.30;;;;;;;9.52;69.24;99904.07;208371;1280;139596;-65
2022/12/30 11:57:17;;;;;;;9.50;3.50;;;;;;;9.56;69.20;99903.20;207706;1287;141205;-66
2022/12/30 12:02:27;;;;;;;7.40;2.90;;;;;;;9.64;68.93;99906.64;208403;1294;140279;-64
2022/12/30 12:07:45;;;;;;;2.50;2.30;;;;;;;9.63;68.84;99903.37;207961;1294;140773;-66
2022/12/30 12:12:56;;;;;;;6.80;2.20;;;;;;;9.61;68.59;99894.31;209072;1278;139709;-64
2022/12/30 12:18:10;;;;;;;2.00;1.70;;;;;;;9.57;68.32;99886.05;208168;1284;139503;-64
2022/12/30 12:23:13;;;;;;;5.40;2.90;;;;;;;9.48;67.94;99878.52;209291;1285;139230;-69
2022/12/30 12:28:15;;;;;;;2.40;1.90;;;;;;;9.44;67.87;99869.27;207535;1278;139431;-68
2022/12/30 12:33:34;;;;;;;3.20;1.20;;;;;;;9.43;67.73;99869.40;208398;1280;139343;-68
2022/12/30 12:39:07;;;;;;;5.30;1.80;;;;;;;9.45;67.49;99873.45;207365;1289;140152;-66
2022/12/30 12:44:21;;;;;;;4.20;1.70;;;;;;;9.45;67.43;99883.51;208497;1284;139129;-67
2022/12/30 12:49:37;;;;;;;5.10;1.80;;;;;;;9.46;67.22;99882.52;208279;1293;139730;-63
2022/12/30 12:55:14;;;;;;;4.10;2.60;;;;;;;9.45;67.09;99880.14;208558;1292;140424;-66
2022/12/30 13:00:19;;;;;;;9.30;3.40;;;;;;;9.42;67.02;99886.94;208478;1295;139810;-67
2022/12/30 13:05:48;;;;;;;14.40;2.30;;;;;;;9.39;66.81;99900.10;208684;1295;141546;-68
2022/12/30 13:11:29;;;;;;;7.40;3.00;;;;;;;9.31;66.71;99902.29;208846;1296;141044;-67
2022/12/30 13:16:42;;;;;;;4.90;2.40;;;;;;;9.23;66.64;99891.89;210297;1301;138940;-67
2022/12/30 13:21:51;;;;;;;10.20;2.70;;;;;;;9.25;66.51;99887.13;209807;1294;140744;-67
2022/12/30 13:26:55;;;;;;;8.10;2.30;;;;;;;9.26;66.60;99907.98;210386;1294;140218;-64
2022/12/30 13:32:06;;;;;;;6.20;1.80;;;;;;;9.13;66.21;99915.75;210455;1295;140597;-63
2022/12/30 13:37:17;;;;;;;5.80;2.40;;;;;;;8.99;66.37;99909.34;209303;1287;141139;-64
2022/12/30 13:43:05;;;;;;;9.80;2.90;;;;;;;8.91;66.49;99900.00;210416;1295;139352;-65
2022/12/30 13:48:10;;;;;;;7.20;3.80;;;;;;;8.79;66.48;99892.52;208111;1295;139472;-66
2022/12/30 13:53:35;;;;;;;5.00;2.20;;;;;;;8.70;66.67;99895.80;208579;1293;140640;-63
2022/12/30 13:58:47;;;;;;;2.50;2.30;;;;;;;8.56;66.64;99912.23;208639;1287;138912;-66
2022/12/30 14:03:51;;;;;;;2.40;1.70;;;;;;;8.43;66.86;99919.53;208429;1285;139011;-64
2022/12/30 14:09:27;;;;;;;9.30;2.50;;;;;;;8.29;66.98;99924.64;208224;1285;139895;-64
2022/12/30 14:14:43;;;;;;;9.70;2.90;;;;;;;8.12;66.97;99924.21;208309;1298;139175;-67
2022/12/30 14:20:14;;;;;;;7.20;2.90;;;;;;;7.92;67.20;99925.48;208350;1301;140269;-63
2022/12/30 14:25:26;;;;;;;9.00;2.50;;;;;;;7.79;67.55;99921.86;207686;1286;139242;-64
2022/12/30 14:30:33;;;;;;;10.10;2.00;;;;;;;7.69;67.48;99931.05;208528;1298;139584;-67
2022/12/30 14:36:13;;;;;;;3.60;2.10;;;;;;;7.53;67.63;99936.48;208239;1288;141432;-62
2022/12/30 14:41:35;;;;;;;8.00;1.90;;;;;;;7.31;67.89;99936.38;210062;1291;138793;-66
2022/12/30 14:46:41;;;;;;;10.10;2.80;;;;;;;7.11;67.60;99933.85;208127;1294;138949;-66
2022/12/30 14:51:52;;;;;;;4.40;3.00;;;;;;;6.93;67.73;99933.16;208576;1296;142458;-66
2022/12/30 14:57:16;;;;;;;7.50;2.10;;;;;;;6.74;68.06;99931.99;209146;1294;224889;-64
2022/12/30 15:02:29;;;;;;;5.00;2.40;;;;;;;6.54;68.61;99920.95;208159;1287;139599;-65
2022/12/30 15:07:34;;;;;;;3.50;2.00;;;;;;;6.37;68.45;99932.73;209263;1284;139297;-64
2022/12/30 15:12:36;;;;;;;6.70;2.40;;;;;;;6.18;68.60;99936.33;209115;1287;152015;-66
2022/12/30 15:17:39;;;;;;;7.90;2.00;;;;;;;6.05;68.69;99943.27;208219;1284;261032;-66
2022/12/30 15:22:42;;;;;;;7.90;2.30;;;;;;;5.91;68.84;99944.99;210632;1284;139895;-71
2022/12/30 15:27:51;;;;;;;4.60;2.90;;;;;;;5.65;68.66;99949.20;208952;1294;139005;-67
2022/12/30 15:32:57;;;;;;;;;;;;;;;5.35;68.41;99958.71;209423;1287;139339;-69
2022/12/30 15:38:01;;;;;;;68.50;26.90;;;;;;;5.05;69.05;99961.63;209602;1285;125181;-67
2022/12/30 15:43:11;;;;;;;20.30;10.90;;;;;;;4.88;69.37;99953.42;208310;1287;139392;-64
2022/12/30 15:48:38;;;;;;;12.60;6.80;;;;;;;4.74;69.71;99957.09;207556;1287;140258;-64
2022/12/30 15:54:05;;;;;;;10.80;5.60;;;;;;;4.58;69.87;99967.92;208511;1294;139176;-62
2022/12/30 15:59:15;;;;;;;10.70;5.40;;;;;;;4.47;69.97;99974.95;207996;1287;139791;-66
2022/12/30 16:04:20;;;;;;;14.90;8.40;;;;;;;4.29;69.78;99976.06;208389;1288;140323;-68
2022/12/30 16:09:37;;;;;;;22.40;10.20;;;;;;;4.02;69.97;99985.23;208399;1291;140723;-68
2022/12/30 16:14:40;;;;;;;32.00;15.80;;;;;;;3.69;70.12;99988.35;208264;1287;142362;-66
2022/12/30 16:19:44;;;;;;;39.40;20.30;;;;;;;3.44;70.59;99986.08;208768;1289;139001;-62
2022/12/30 16:25:18;;;;;;;52.40;24.40;;;;;;;3.23;70.80;99981.28;207578;1287;141493;-62
2022/12/30 16:30:35;;;;;;;33.90;18.70;;;;;;;3.10;71.33;99981.73;208654;1294;141375;-63
2022/12/30 16:35:38;;;;;;;25.90;13.00;;;;;;;3.08;71.90;99968.29;208573;1293;139300;-69
2022/12/30 16:40:42;;;;;;;25.80;13.30;;;;;;;3.01;71.93;99954.45;209239;1281;140351;-62
2022/12/30 16:45:46;;;;;;;29.40;13.10;;;;;;;3.00;72.47;99954.80;209526;1293;139854;-63
2022/12/30 16:50:50;;;;;;;24.10;11.30;;;;;;;2.98;72.93;99956.95;207968;1287;140283;-65
2022/12/30 16:55:53;;;;;;;27.00;12.40;;;;;;;3.00;73.10;99952.33;208413;1287;141293;-66
2022/12/30 17:00:56;;;;;;;29.50;14.50;;;;;;;3.08;73.66;99946.11;210379;1294;142660;-66
2022/12/30 17:05:59;;;;;;;23.30;11.30;;;;;;;3.27;74.23;99940.41;210523;1295;140106;-65
2022/12/30 17:11:17;;;;;;;22.80;11.20;;;;;;;3.42;74.54;99941.77;209844;1286;153683;-67
2022/12/30 17:16:27;;;;;;;26.90;12.00;;;;;;;3.54;74.82;99936.78;209295;1281;139914;-63
2022/12/30 17:21:42;;;;;;;16.40;10.50;;;;;;;3.63;75.07;99936.30;210527;1291;140117;-63
2022/12/30 17:26:46;;;;;;;17.30;10.30;;;;;;;3.72;75.03;99935.64;207844;1284;141720;-66
2022/12/30 17:31:50;;;;;;;25.00;10.40;;;;;;;3.81;74.97;99938.63;209042;1287;140412;-67
2022/12/30 17:36:53;;;;;;;15.60;9.60;;;;;;;3.83;75.16;99936.98;207896;1287;140077;-66
2022/12/30 17:41:55;;;;;;;18.10;8.80;;;;;;;3.79;75.36;99927.58;208560;1282;140576;-67
2022/12/30 17:46:58;;;;;;;24.00;13.90;;;;;;;3.75;75.34;99930.45;208241;1286;139606;-66
2022/12/30 17:52:01;;;;;;;29.00;13.90;;;;;;;3.72;75.68;99925.35;207545;1288;139308;-62
2022/12/30 17:57:05;;;;;;;32.70;14.40;;;;;;;3.81;75.72;99919.23;207578;1281;141070;-64
2022/12/30 18:02:10;;;;;;;23.30;14.00;;;;;;;3.83;75.78;99921.66;207604;1288;140522;-66
2022/12/30 18:07:14;;;;;;;29.00;15.50;;;;;;;3.77;75.97;99918.34;207724;1294;139554;-64
2022/12/30 18:12:17;;;;;;;33.10;18.10;;;;;;;3.72;76.31;99913.86;208470;1288;141305;-69
2022/12/30 18:17:19;;;;;;;26.30;13.40;;;;;;;3.66;76.25;99912.80;208206;1287;140066;-63
2022/12/30 18:22:22;;;;;;;28.80;15.40;;;;;;;3.67;76.39;99906.27;207719;1294;140498;-67
2022/12/30 18:27:26;;;;;;;29.90;14.40;;;;;;;3.66;76.46;99906.06;208081;1280;142286;-66
2022/12/30 18:32:29;;;;;;;19.10;12.90;;;;;;;3.63;76.79;99900.28;207819;1291;141044;-64
2022/12/30 18:37:33;;;;;;;25.60;12.60;;;;;;;3.57;76.93;99897.77;208697;1288;141980;-65
2022/12/30 18:42:35;;;;;;;29.20;16.50;;;;;;;3.54;77.20;99889.70;207554;1287;152967;-65
2022/12/30 18:47:38;;;;;;;29.40;17.70;;;;;;;3.56;77.37;99887.30;207671;1287;141297;-66
2022/12/30 18:52:44;;;;;;;29.50;18.30;;;;;;;3.58;77.45;99894.48;209159;1294;140108;-64
2022/12/30 18:57:48;;;;;;;42.80;20.80;;;;;;;3.56;77.76;99887.13;210276;1294;139526;-64
2022/12/30 19:02:51;;;;;;;37.90;18.70;;;;;;;3.55;77.77;99880.26;210081;1281;139717;-63
2022/12/30 19:07:54;;;;;;;31.80;17.00;;;;;;;3.62;77.77;99884.98;210479;1295;142353;-63
2022/12/30 19:13:17;;;;;;;50.10;25.90;;;;;;;3.67;77.97;99895.80;210015;1288;140930;-65
2022/12/30 19:18:21;;;;;;;20.20;13.20;;;;;;;3.69;78.05;99893.19;209106;1294;139525;-65
2022/12/30 19:23:23;;;;;;;35.80;16.30;;;;;;;3.66;77.90;99889.93;210194;1293;140600;-65
2022/12/30 19:28:28;;;;;;;27.80;17.20;;;;;;;3.67;77.99;99885.38;209246;1287;140870;-65
2022/12/30 19:33:31;;;;;;;34.40;20.50;;;;;;;3.72;78.12;99883.23;209145;1296;142056;-65
2022/12/30 19:38:38;;;;;;;28.90;16.10;;;;;;;3.71;78.13;99884.33;208118;1294;141958;-62
2022/12/30 19:43:41;;;;;;;19.70;13.80;;;;;;;3.66;78.23;99879.25;209796;1286;140404;-63
2022/12/30 19:48:46;;;;;;;34.60;20.00;;;;;;;3.59;78.08;99876.35;208766;1301;153335;-65
2022/12/30 19:53:51;;;;;;;41.90;20.70;;;;;;;3.55;78.06;99882.10;208835;1293;142533;-65
2022/12/30 19:58:55;;;;;;;36.00;17.20;;;;;;;3.51;78.38;99886.11;208436;1288;205936;-66
2022/12/30 20:04:00;;;;;;;35.80;18.30;;;;;;;3.44;78.58;99879.96;209193;1294;139461;-67
2022/12/30 20:09:04;;;;;;;34.20;16.50;;;;;;;3.40;78.63;99876.19;207884;1293;140689;-64
2022/12/30 20:14:14;;;;;;;34.60;19.10;;;;;;;3.40;78.87;99869.58;209224;1291;141497;-62
2022/12/30 20:19:18;;;;;;;23.50;13.80;;;;;;;3.40;79.04;99872.05;209344;1278;141145;-63
2022/12/30 20:24:23;;;;;;;30.10;20.10;;;;;;;3.39;79.14;99873.05;209315;1294;153328;-62
2022/12/30 20:29:27;;;;;;;29.30;17.10;;;;;;;3.40;79.26;99865.85;208505;1288;140607;-65
2022/12/30 20:34:31;;;;;;;34.10;18.00;;;;;;;3.38;79.37;99856.52;207929;1295;140354;-63
2022/12/30 20:39:33;;;;;;;33.50;20.30;;;;;;;3.36;79.25;99854.95;209435;1291;139747;-62
2022/12/30 20:44:36;;;;;;;35.30;17.90;;;;;;;3.36;79.43;99841.78;208818;1292;140693;-62
2022/12/30 20:49:39;;;;;;;31.70;19.80;;;;;;;3.34;79.68;99836.21;210125;1295;141283;-64
2022/12/30 20:54:41;;;;;;;34.90;19.70;;;;;;;3.37;79.86;99831.27;210211;1294;139973;-67
2022/12/30 20:59:44;;;;;;;32.40;19.80;;;;;;;3.42;79.79;99822.94;210130;1283;141005;-62
2022/12/30 21:04:48;;;;;;;26.50;15.00;;;;;;;3.40;79.89;99824.54;210517;1295;140494;-63
2022/12/30 21:09:51;;;;;;;36.80;23.20;;;;;;;3.40;79.76;99816.88;210214;1288;140481;-64
2022/12/30 21:14:53;;;;;;;30.30;15.70;;;;;;;3.42;80.16;99818.07;208771;1286;140535;-63
2022/12/30 21:19:56;;;;;;;33.00;19.00;;;;;;;3.43;80.17;99807.15;209594;1287;249048;-64
2022/12/30 21:24:59;;;;;;;30.40;17.00;;;;;;;3.46;80.07;99786.06;208592;1293;142962;-66
2022/12/30 21:30:06;;;;;;;31.20;17.70;;;;;;;3.38;80.02;99769.00;210326;1287;141155;-61
2022/12/30 21:35:09;;;;;;;34.90;20.70;;;;;;;3.36;80.44;99753.28;208271;1282;141457;-62
2022/12/30 22:07:05;;;;;;;32.90;19.10;;;;;;;3.65;81.09;99719.42;207975;1278;140469;-62
2022/12/30 22:12:08;;;;;;;26.60;18.10;;;;;;;3.67;81.16;99706.85;208548;1288;140950;-62
2022/12/30 22:17:11;;;;;;;30.40;18.60;;;;;;;3.71;80.99;99708.42;207828;1294;142186;-64
2022/12/30 22:22:15;;;;;;;32.60;18.40;;;;;;;3.70;81.08;99709.06;208025;1293;140939;-64
2022/12/30 22:27:18;;;;;;;29.20;18.00;;;;;;;3.70;81.31;99712.06;209841;1293;140104;-64
2022/12/30 22:32:27;;;;;;;38.00;22.20;;;;;;;3.71;81.25;99710.24;208034;1294;141978;-64
2022/12/30 22:37:40;;;;;;;32.20;19.80;;;;;;;3.70;81.03;99706.66;208885;1293;142272;-64
2022/12/30 22:42:44;;;;;;;27.60;16.10;;;;;;;3.69;81.09;99699.23;210218;1288;140007;-65
2022/12/30 22:47:48;;;;;;;33.40;20.50;;;;;;;3.74;81.11;99703.40;210265;1294;141181;-64
2022/12/30 22:52:57;;;;;;;35.30;19.60;;;;;;;3.74;81.01;99702.84;210405;1295;140662;-64
2022/12/30 22:57:59;;;;;;;;;;;;;;;3.76;81.10;99700.21;210549;1294;140124;-64
2022/12/30 23:03:02;;;;;;;26.50;16.90;;;;;;;3.74;80.81;99692.83;210710;1294;126446;-64
2022/12/30 23:08:08;;;;;;;26.10;16.80;;;;;;;3.74;80.86;99700.70;210129;1294;150962;-64
2022/12/30 23:18:43;;;;;;;27.20;14.30;;;;;;;3.74;80.67;99673.68;208683;1281;139749;-64
2022/12/30 23:29:12;;;;;;;26.30;17.70;;;;;;;3.76;80.98;99656.75;208958;1295;139784;-65
2022/12/30 23:34:17;;;;;;;30.00;17.20;;;;;;;3.78;81.07;99642.36;208028;1294;140589;-62
2022/12/30 23:39:21;;;;;;;40.40;19.90;;;;;;;3.77;81.08;99625.27;208230;1294;139999;-66
2022/12/30 23:44:25;;;;;;;40.60;21.70;;;;;;;3.82;81.18;99621.73;207922;1295;140930;-65
2022/12/30 23:49:27;;;;;;;33.10;20.30;;;;;;;3.82;81.41;99615.83;207770;1285;208010;-66
2022/12/30 23:54:30;;;;;;;30.40;18.60;;;;;;;3.82;81.26;99606.49;207618;1288;140312;-67
2022/12/30 23:59:36;;;;;;;31.10;17.50;;;;;;;3.85;81.27;99617.75;208703;1281;139690;-65
